Time;durP1;ratioP1;P1;durP2;ratioP2;P2;SDS_P1;SDS_P2;PMS_P1;PMS_P2;Temp;Humidity;BMP_temperature;BMP_pressure;BME280_temperature;BME280_humidity;BME280_pressure;Samples;Min_cycle;Max_cycle;Signal;HPM_P1;HPM_P2
2024/03/05 00:02:59;;;;;;;5.28;1.38;;;7.10;99.90;;;;;;6295058;28;20145;-84
2024/03/05 00:06:00;;;;;;;6.22;1.40;;;7.20;99.90;;;;;;6277091;28;20048;-84
2024/03/05 00:09:02;;;;;;;5.13;1.20;;;7.20;99.90;;;;;;6304193;28;20051;-83
2024/03/05 00:12:04;;;;;;;7.55;1.33;;;7.20;99.90;;;;;;6312613;28;20933;-83
2024/03/05 00:15:06;;;;;;;3.38;1.10;;;7.20;99.90;;;;;;6284183;28;20063;-83
2024/03/05 00:18:08;;;;;;;8.13;1.50;;;7.30;99.90;;;;;;6294768;28;20127;-83
2024/03/05 00:21:09;;;;;;;5.90;1.33;;;7.20;99.90;;;;;;6276494;28;20092;-83
2024/03/05 00:24:11;;;;;;;6.80;1.30;;;7.20;99.90;;;;;;6292314;28;20420;-83
2024/03/05 00:27:13;;;;;;;6.00;1.30;;;7.30;99.90;;;;;;6312189;28;20054;-83
2024/03/05 00:30:15;;;;;;;5.07;1.40;;;7.30;99.90;;;;;;6284115;28;20052;-83
2024/03/05 00:33:17;;;;;;;5.47;1.50;;;7.30;99.90;;;;;;6294093;28;20051;-82
2024/03/05 00:36:19;;;;;;;5.25;1.42;;;7.30;99.90;;;;;;6293927;28;20052;-83
2024/03/05 00:39:20;;;;;;;6.43;1.60;;;7.40;99.90;;;;;;6294327;28;20048;-83
2024/03/05 00:42:22;;;;;;;6.95;1.40;;;7.30;99.90;;;;;;6275908;28;20415;-82
2024/03/05 00:45:24;;;;;;;5.63;1.90;;;7.30;99.90;;;;;;6270677;28;20475;-83
2024/03/05 00:48:25;;;;;;;4.35;1.42;;;7.30;99.90;;;;;;6269358;28;20045;-82
2024/03/05 00:51:27;;;;;;;4.72;1.75;;;7.20;99.90;;;;;;6311111;28;20051;-83
2024/03/05 00:54:29;;;;;;;9.95;1.77;;;7.20;99.90;;;;;;6294327;28;20060;-83
2024/03/05 00:57:30;;;;;;;5.70;1.50;;;7.20;99.90;;;;;;6275349;28;20044;-83
2024/03/05 01:00:32;;;;;;;7.45;1.80;;;7.10;99.90;;;;;;6282938;28;20075;-82
2024/03/05 01:03:34;;;;;;;5.72;1.50;;;7.20;99.90;;;;;;6293509;28;20060;-82
2024/03/05 01:06:36;;;;;;;6.55;1.67;;;7.20;99.90;;;;;;6275732;28;20053;-82
2024/03/05 01:09:37;;;;;;;6.30;1.70;;;7.20;99.90;;;;;;6275788;28;20052;-82
2024/03/05 01:12:40;;;;;;;6.68;1.75;;;7.10;99.90;;;;;;6293519;28;20078;-83
2024/03/05 01:15:42;;;;;;;8.13;1.77;;;7.10;99.90;;;;;;6258132;28;20049;-82
2024/03/05 01:18:43;;;;;;;7.00;1.98;;;7.10;99.90;;;;;;6268381;28;20448;-82
2024/03/05 01:21:45;;;;;;;5.65;1.70;;;7.10;99.90;;;;;;6297685;28;20052;-82
2024/03/05 01:24:47;;;;;;;6.82;1.98;;;7.10;99.90;;;;;;6298419;28;20052;-82
2024/03/05 01:27:48;;;;;;;8.20;2.10;;;7.00;99.90;;;;;;6297623;28;20206;-82
2024/03/05 01:30:50;;;;;;;7.22;2.10;;;7.00;99.90;;;;;;6266820;28;20496;-82
2024/03/05 01:33:52;;;;;;;8.10;2.10;;;6.90;99.90;;;;;;6274032;28;20055;-84
2024/03/05 01:36:57;;;;;;;4.82;1.80;;;7.00;99.90;;;;;;6279847;28;20118;-82
2024/03/05 01:39:59;;;;;;;6.07;1.50;;;7.00;99.90;;;;;;6301672;28;20052;-83
2024/03/05 01:43:01;;;;;;;9.43;2.00;;;7.00;99.90;;;;;;6297691;28;20403;-83
2024/03/05 01:46:02;;;;;;;6.32;1.77;;;7.00;99.90;;;;;;6282758;28;20049;-84
2024/03/05 01:49:04;;;;;;;5.05;1.90;;;6.90;99.90;;;;;;6282347;28;20055;-82
2024/03/05 01:52:06;;;;;;;6.65;2.40;;;7.00;99.90;;;;;;6280040;28;20056;-82
2024/03/05 01:55:09;;;;;;;5.90;1.90;;;7.00;99.90;;;;;;6297241;28;20053;-83
2024/03/05 01:58:14;;;;;;;5.78;1.92;;;7.00;99.90;;;;;;6279550;28;20058;-83
2024/03/05 02:01:16;;;;;;;6.65;1.92;;;7.00;99.90;;;;;;6287491;28;20515;-83
2024/03/05 02:04:18;;;;;;;5.80;1.95;;;7.00;99.90;;;;;;6279382;28;20102;-82
2024/03/05 02:07:22;;;;;;;6.65;2.00;;;6.90;99.90;;;;;;6297215;28;20053;-82
2024/03/05 02:10:24;;;;;;;8.40;1.90;;;7.00;99.90;;;;;;6296527;28;20052;-81
2024/03/05 02:13:26;;;;;;;6.43;1.90;;;7.00;99.90;;;;;;6263142;28;20051;-83
2024/03/05 02:16:27;;;;;;;7.60;2.35;;;6.90;99.90;;;;;;6296698;28;20052;-82
2024/03/05 02:19:29;;;;;;;4.75;1.92;;;7.00;99.90;;;;;;6296445;28;20063;-82
2024/03/05 02:22:31;;;;;;;6.57;1.92;;;7.00;99.90;;;;;;6296054;28;20431;-82
2024/03/05 02:25:33;;;;;;;7.43;1.98;;;6.90;99.90;;;;;;6294697;28;20056;-82
2024/03/05 02:28:35;;;;;;;7.03;2.10;;;6.90;99.90;;;;;;6285956;28;20504;-81
2024/03/05 02:31:36;;;;;;;7.43;2.10;;;6.90;99.90;;;;;;6296696;28;20052;-82
2024/03/05 02:34:38;;;;;;;6.00;2.40;;;6.90;99.90;;;;;;6296626;28;20079;-82
2024/03/05 02:37:39;;;;;;;6.30;1.98;;;6.90;99.90;;;;;;6296164;28;20063;-82
2024/03/05 02:40:41;;;;;;;8.18;2.53;;;6.90;99.90;;;;;;6306641;28;20142;-82
2024/03/05 02:43:45;;;;;;;8.57;2.20;;;6.90;99.90;;;;;;6281900;28;20049;-81
2024/03/05 02:46:47;;;;;;;7.38;2.05;;;6.90;99.90;;;;;;6277855;28;20139;-82
2024/03/05 02:49:50;;;;;;;8.05;2.45;;;6.90;99.90;;;;;;6296190;28;20140;-81
2024/03/05 02:52:52;;;;;;;4.82;1.98;;;6.90;99.90;;;;;;6295934;28;20060;-81
2024/03/05 02:55:54;;;;;;;7.47;2.08;;;6.90;99.90;;;;;;6296013;28;20070;-81
2024/03/05 02:58:56;;;;;;;5.72;2.10;;;7.30;99.90;;;;;;6267779;28;20070;-82
2024/03/05 03:01:57;;;;;;;7.22;2.20;;;6.90;99.90;;;;;;6278570;28;20181;-82
2024/03/05 03:04:59;;;;;;;6.90;2.22;;;7.00;99.90;;;;;;6282217;28;20151;-82
2024/03/05 03:08:02;;;;;;;5.15;2.25;;;6.90;99.90;;;;;;6277711;28;20131;-81
2024/03/05 03:11:03;;;;;;;5.80;1.92;;;6.90;99.90;;;;;;6295521;28;20198;-82
2024/03/05 03:14:07;;;;;;;8.20;1.98;;;6.90;99.90;;;;;;6261865;28;20044;-82
2024/03/05 03:17:09;;;;;;;8.65;2.30;;;6.90;99.90;;;;;;6295268;28;20059;-81
2024/03/05 03:20:15;;;;;;;6.47;2.20;;;7.00;99.90;;;;;;6295435;28;20079;-82
2024/03/05 03:23:18;;;;;;;9.13;2.47;;;6.90;99.90;;;;;;6274069;28;20058;-82
2024/03/05 03:26:20;;;;;;;8.20;1.85;;;6.90;99.90;;;;;;6296734;28;20159;-82
2024/03/05 03:29:21;;;;;;;4.63;2.00;;;6.90;99.90;;;;;;6271470;28;20056;-82
2024/03/05 03:32:23;;;;;;;4.85;2.10;;;6.90;99.90;;;;;;6295266;28;20463;-81
2024/03/05 03:35:25;;;;;;;5.25;1.85;;;6.80;99.90;;;;;;6294947;28;20762;-82
2024/03/05 03:38:27;;;;;;;4.10;1.77;;;6.90;99.90;;;;;;6295245;28;20491;-83
2024/03/05 03:41:28;;;;;;;5.85;2.10;;;6.90;99.90;;;;;;6294316;28;20052;-83
2024/03/05 03:44:30;;;;;;;5.38;1.88;;;6.90;99.90;;;;;;6276351;28;20056;-82
2024/03/05 03:47:32;;;;;;;6.55;2.00;;;6.90;99.90;;;;;;6294756;28;20056;-82
2024/03/05 03:50:37;;;;;;;5.95;1.92;;;6.90;99.90;;;;;;6276920;28;20229;-82
2024/03/05 03:53:42;;;;;;;4.72;2.05;;;6.90;99.90;;;;;;6298973;28;20045;-82
2024/03/05 03:56:44;;;;;;;4.85;2.00;;;6.90;99.90;;;;;;6303091;28;20052;-83
2024/03/05 03:59:45;;;;;;;5.50;2.17;;;6.90;99.90;;;;;;6286139;28;20053;-82
2024/03/05 04:02:47;;;;;;;4.90;2.10;;;6.90;99.90;;;;;;6277050;28;20052;-81
2024/03/05 04:05:49;;;;;;;3.92;2.17;;;7.00;99.90;;;;;;6279468;28;20056;-82
2024/03/05 04:08:51;;;;;;;6.53;1.92;;;6.90;99.90;;;;;;6305931;28;20059;-83
2024/03/05 04:11:53;;;;;;;5.10;2.00;;;7.00;99.90;;;;;;6307714;28;20063;-82
2024/03/05 04:14:54;;;;;;;7.03;2.00;;;6.90;99.90;;;;;;6261709;28;20055;-83
2024/03/05 04:17:57;;;;;;;4.80;2.00;;;7.00;99.90;;;;;;6276221;28;20530;-83
2024/03/05 04:21:00;;;;;;;5.47;1.90;;;7.00;99.90;;;;;;6276288;28;20052;-82
2024/03/05 04:24:02;;;;;;;5.38;2.25;;;6.90;99.90;;;;;;6276823;28;20053;-83
2024/03/05 04:27:04;;;;;;;4.15;2.10;;;7.00;99.90;;;;;;6293814;28;20060;-82
2024/03/05 04:30:10;;;;;;;6.95;2.60;;;7.00;99.90;;;;;;6293128;28;20048;-83
2024/03/05 04:33:15;;;;;;;5.55;2.13;;;7.00;99.90;;;;;;6269170;28;20049;-83
2024/03/05 04:36:17;;;;;;;4.10;2.20;;;7.00;99.90;;;;;;6293920;28;20472;-83
2024/03/05 04:39:20;;;;;;;7.13;2.53;;;7.00;99.90;;;;;;6294874;28;20048;-83
2024/03/05 04:42:22;;;;;;;9.75;2.60;;;7.00;99.90;;;;;;6276255;28;20052;-82
2024/03/05 04:45:25;;;;;;;9.73;2.58;;;6.90;99.90;;;;;;6257536;28;20645;-83
2024/03/05 04:48:26;;;;;;;6.07;2.90;;;6.90;99.90;;;;;;6288568;28;20074;-83
2024/03/05 04:51:28;;;;;;;8.45;3.20;;;6.90;99.90;;;;;;6293846;28;20052;-83
2024/03/05 04:54:30;;;;;;;8.02;2.72;;;6.90;99.90;;;;;;6273059;28;20057;-83
2024/03/05 04:57:31;;;;;;;7.05;2.70;;;6.90;99.90;;;;;;6275486;28;20139;-82
2024/03/05 05:00:33;;;;;;;14.98;3.35;;;6.90;99.90;;;;;;6275301;28;20502;-82
2024/03/05 05:03:35;;;;;;;6.43;2.80;;;7.00;99.90;;;;;;6292909;28;20055;-82
2024/03/05 05:06:36;;;;;;;6.38;2.70;;;7.20;99.90;;;;;;6293581;28;20056;-83
2024/03/05 05:09:39;;;;;;;5.13;2.50;;;7.00;99.90;;;;;;6297410;28;20040;-82
2024/03/05 05:12:41;;;;;;;5.25;2.40;;;7.00;99.90;;;;;;6293678;28;20064;-83
2024/03/05 05:15:43;;;;;;;8.20;2.75;;;7.00;99.90;;;;;;6288808;28;20427;-83
2024/03/05 05:18:45;;;;;;;7.30;2.75;;;7.00;99.90;;;;;;6275418;28;20504;-83
2024/03/05 05:21:47;;;;;;;6.38;2.35;;;7.10;99.90;;;;;;6275252;28;20514;-82
2024/03/05 05:24:48;;;;;;;7.22;2.45;;;7.10;99.90;;;;;;6293121;28;20068;-82
2024/03/05 05:27:50;;;;;;;5.97;2.30;;;7.10;99.90;;;;;;6292621;28;20049;-83
2024/03/05 05:30:52;;;;;;;4.38;2.00;;;7.10;99.90;;;;;;6292664;28;20281;-83
2024/03/05 05:33:53;;;;;;;4.63;2.35;;;7.10;99.90;;;;;;6304372;28;20056;-82
2024/03/05 05:36:57;;;;;;;6.35;2.20;;;7.10;99.90;;;;;;6293170;28;20110;-82
2024/03/05 05:39:58;;;;;;;7.57;2.72;;;7.10;99.90;;;;;;6281886;28;20051;-81
2024/03/05 05:43:00;;;;;;;11.20;2.83;;;7.10;99.90;;;;;;6301658;28;20053;-83
2024/03/05 05:46:04;;;;;;;8.10;3.25;;;7.10;99.90;;;;;;6282598;28;20060;-83
2024/03/05 05:49:06;;;;;;;7.53;3.10;;;7.10;99.90;;;;;;6298522;28;20416;-83
2024/03/05 05:52:08;;;;;;;8.55;3.30;;;7.10;99.90;;;;;;6312271;28;20052;-83
2024/03/05 05:55:10;;;;;;;5.10;2.63;;;7.10;99.90;;;;;;6283718;28;20048;-83
2024/03/05 05:58:13;;;;;;;6.32;3.20;;;7.10;99.90;;;;;;6292977;28;20049;-83
2024/03/05 06:01:15;;;;;;;5.53;3.13;;;7.20;99.90;;;;;;6266034;28;20431;-84
2024/03/05 06:04:16;;;;;;;8.10;3.33;;;7.20;99.90;;;;;;6275225;28;20056;-83
2024/03/05 06:07:18;;;;;;;6.68;3.80;;;7.20;99.90;;;;;;6279622;28;20182;-83
2024/03/05 06:10:22;;;;;;;8.20;3.80;;;7.30;99.90;;;;;;6295952;28;20063;-83
2024/03/05 06:13:24;;;;;;;9.60;4.00;;;7.30;99.90;;;;;;6291754;28;20052;-83
2024/03/05 06:16:26;;;;;;;11.73;3.95;;;7.30;99.90;;;;;;6280458;28;20056;-82
2024/03/05 06:19:27;;;;;;;11.20;4.20;;;7.30;99.90;;;;;;6297143;28;20052;-83
2024/03/05 06:22:29;;;;;;;12.68;4.88;;;7.30;99.90;;;;;;6308208;28;20581;-83
2024/03/05 06:25:35;;;;;;;11.88;5.00;;;7.20;99.90;;;;;;6283246;28;20055;-84
2024/03/05 06:28:37;;;;;;;9.25;4.97;;;7.20;99.90;;;;;;6286047;28;20407;-86
2024/03/05 06:31:39;;;;;;;13.30;4.50;;;7.20;99.90;;;;;;6296778;28;20098;-87
2024/03/05 06:34:42;;;;;;;13.55;4.68;;;7.20;99.90;;;;;;6303699;28;20071;-88
2024/03/05 06:37:44;;;;;;;13.13;5.05;;;7.20;99.90;;;;;;6296073;28;20415;-86
2024/03/05 06:40:46;;;;;;;10.38;4.78;;;7.20;99.90;;;;;;6300924;28;20055;-86
2024/03/05 06:43:50;;;;;;;17.48;5.30;;;7.10;99.90;;;;;;6273514;28;20063;-85
2024/03/05 06:46:53;;;;;;;8.80;4.70;;;7.10;99.90;;;;;;6297649;28;20081;-85
2024/03/05 06:49:57;;;;;;;12.65;5.30;;;7.10;99.90;;;;;;6281247;28;20053;-87
2024/03/05 06:59:40;;;;;;;17.23;5.30;;;7.10;99.90;;;;;;6279356;28;20044;-88
2024/03/05 07:02:41;;;;;;;11.73;5.63;;;7.10;99.90;;;;;;6279318;28;20102;-87
2024/03/05 07:05:43;;;;;;;12.02;5.85;;;7.10;99.90;;;;;;6296795;28;20063;-88
2024/03/05 07:08:47;;;;;;;15.68;5.93;;;7.20;99.90;;;;;;6297991;28;20056;-87
2024/03/05 07:11:48;;;;;;;11.98;5.70;;;7.20;99.90;;;;;;6297595;28;20060;-88
2024/03/05 07:14:50;;;;;;;17.08;5.80;;;7.20;99.90;;;;;;6269251;28;20045;-87
2024/03/05 07:17:52;;;;;;;14.57;6.05;;;7.20;99.90;;;;;;6278361;28;20060;-88
2024/03/05 07:20:54;;;;;;;10.88;5.65;;;7.20;99.90;;;;;;6297674;28;20066;-87
2024/03/05 07:23:57;;;;;;;14.30;5.68;;;7.30;99.90;;;;;;6278802;28;20052;-88
2024/03/05 07:26:59;;;;;;;14.45;6.35;;;7.30;99.90;;;;;;6296674;28;20056;-87
2024/03/05 07:30:11;;;;;;;;;;;7.40;99.90;;;;;;6258583;28;20488;-88
2024/03/05 07:33:13;;;;;;;11.50;5.65;;;7.40;99.90;;;;;;6279174;28;19931;-88
2024/03/05 07:36:15;;;;;;;11.63;5.85;;;7.50;99.90;;;;;;6296768;28;20056;-88
2024/03/05 07:39:17;;;;;;;12.95;5.65;;;7.50;99.90;;;;;;6279560;28;20492;-88
2024/03/05 07:42:18;;;;;;;10.88;5.70;;;7.60;99.90;;;;;;6279126;28;20139;-89
2024/03/05 07:45:20;;;;;;;15.40;5.93;;;7.70;99.90;;;;;;6278081;28;20048;-87
2024/03/05 07:48:22;;;;;;;11.00;5.72;;;7.70;99.90;;;;;;6279512;28;20063;-90
2024/03/05 07:51:23;;;;;;;9.82;5.68;;;7.70;99.90;;;;;;6277494;28;20416;-88
2024/03/05 07:54:30;;;;;;;13.02;6.43;;;7.80;99.90;;;;;;6272073;28;20132;-88
2024/03/05 07:57:31;;;;;;;15.10;6.35;;;7.80;99.90;;;;;;6277031;28;20082;-88
2024/03/05 08:00:35;;;;;;;11.85;6.57;;;7.80;99.90;;;;;;6299140;28;20503;-88
2024/03/05 08:03:37;;;;;;;11.32;6.32;;;7.90;99.90;;;;;;6261258;28;20076;-86
2024/03/05 08:06:38;;;;;;;13.40;6.80;;;7.90;99.90;;;;;;6295555;28;20059;-88
2024/03/05 08:09:40;;;;;;;14.15;7.03;;;8.00;99.90;;;;;;6293954;28;20629;-86
2024/03/05 08:12:42;;;;;;;12.25;6.60;;;8.10;99.90;;;;;;6296707;28;20053;-84
2024/03/05 08:15:44;;;;;;;11.57;6.80;;;8.20;99.90;;;;;;6266783;28;20048;-81
2024/03/05 08:18:46;;;;;;;13.90;7.55;;;8.30;99.90;;;;;;6279897;28;20488;-84
2024/03/05 08:21:47;;;;;;;15.57;7.13;;;8.40;99.90;;;;;;6277753;28;20071;-89
2024/03/05 08:24:49;;;;;;;14.05;7.30;;;8.50;99.90;;;;;;6278094;28;20056;-85
2024/03/05 08:27:58;;;;;;;14.00;7.10;;;8.50;99.90;;;;;;6281669;28;20064;-83
2024/03/05 08:31:00;;;;;;;13.60;7.45;;;8.50;99.90;;;;;;6295075;28;20496;-91
2024/03/05 08:34:04;;;;;;;14.23;7.28;;;8.50;99.90;;;;;;6279538;28;20064;-90
2024/03/05 08:37:06;;;;;;;13.75;6.70;;;8.50;99.90;;;;;;6299790;28;20499;-93
2024/03/05 08:40:09;;;;;;;17.10;7.00;;;8.60;99.90;;;;;;6281900;28;20052;-92
2024/03/05 08:43:11;;;;;;;14.05;6.97;;;8.60;99.90;;;;;;6265722;28;20356;-92
2024/03/05 08:46:13;;;;;;;16.13;6.60;;;8.70;99.90;;;;;;6279013;28;20064;-87
2024/03/05 08:49:14;;;;;;;12.95;6.30;;;8.80;99.90;;;;;;6278723;28;20258;-90
2024/03/05 08:52:17;;;;;;;15.13;6.95;;;8.80;99.90;;;;;;6278322;28;20496;-84
2024/03/05 08:55:19;;;;;;;11.57;6.22;;;8.80;99.90;;;;;;6278092;28;20052;-92
2024/03/05 08:58:21;;;;;;;15.93;6.63;;;8.80;99.90;;;;;;6275806;28;20058;-89
2024/03/05 09:01:24;;;;;;;15.13;7.10;;;8.80;99.90;;;;;;6276977;28;20482;-90
2024/03/05 09:04:27;;;;;;;14.82;6.85;;;8.80;99.90;;;;;;6298506;28;20053;-89
2024/03/05 09:07:29;;;;;;;11.85;6.70;;;8.70;99.90;;;;;;6280977;28;20056;-91
2024/03/05 09:10:31;;;;;;;13.77;6.97;;;8.80;99.90;;;;;;6276024;28;20464;-86
2024/03/05 09:13:34;;;;;;;13.35;7.63;;;8.90;99.90;;;;;;6260983;28;20067;-92
2024/03/05 09:16:37;;;;;;;12.30;7.10;;;9.10;99.90;;;;;;6280295;28;20066;-91
2024/03/05 09:19:38;;;;;;;13.50;7.68;;;9.20;99.90;;;;;;6279095;28;20548;-88
2024/03/05 09:22:40;;;;;;;10.52;6.82;;;9.40;99.90;;;;;;6298905;28;20055;-90
2024/03/05 09:25:42;;;;;;;11.93;7.38;;;9.60;99.90;;;;;;6278221;28;20568;-86
2024/03/05 09:28:44;;;;;;;12.77;6.85;;;9.80;99.90;;;;;;6269900;28;20522;-88
2024/03/05 09:31:46;;;;;;;11.10;6.03;;;9.90;99.90;;;;;;6276872;28;20080;-87
2024/03/05 09:34:48;;;;;;;7.55;4.80;;;9.90;99.90;;;;;;6279634;28;20450;-90
2024/03/05 09:37:50;;;;;;;6.93;4.47;;;9.90;99.90;;;;;;6297779;28;20318;-89
2024/03/05 09:40:52;;;;;;;10.00;6.10;;;10.00;99.90;;;;;;6279813;28;20514;-90
2024/03/05 09:43:53;;;;;;;7.55;5.00;;;9.90;99.90;;;;;;6281176;28;20060;-90
2024/03/05 09:46:59;;;;;;;9.40;5.63;;;9.80;99.90;;;;;;6281448;28;20333;-91
2024/03/05 09:50:00;;;;;;;9.02;5.32;;;9.90;99.90;;;;;;6299641;28;20395;-92
2024/03/05 09:53:03;;;;;;;10.90;4.55;;;10.00;99.90;;;;;;6299359;28;20358;-92
2024/03/05 09:56:05;;;;;;;9.07;4.10;;;9.90;99.90;;;;;;6299791;28;20090;-93
2024/03/05 09:59:07;;;;;;;8.35;3.97;;;10.20;99.90;;;;;;6280786;28;20071;-90
2024/03/05 10:02:09;;;;;;;7.22;4.22;;;10.30;99.90;;;;;;6299570;28;20048;-89
2024/03/05 10:05:11;;;;;;;8.27;3.42;;;10.40;99.90;;;;;;6281370;28;20078;-89
2024/03/05 10:08:14;;;;;;;10.30;3.95;;;10.40;99.90;;;;;;6281699;28;20048;-89
2024/03/05 10:11:15;;;;;;;9.18;4.43;;;10.30;99.90;;;;;;6280845;28;20071;-89
2024/03/05 10:14:18;;;;;;;8.85;4.93;;;10.40;99.90;;;;;;6270467;28;20051;-87
2024/03/05 10:17:20;;;;;;;9.70;5.45;;;10.40;99.90;;;;;;6280914;28;20064;-86
2024/03/05 10:20:25;;;;;;;14.70;6.35;;;10.50;99.90;;;;;;6281034;28;20056;-88
2024/03/05 10:23:27;;;;;;;14.80;7.20;;;10.40;99.90;;;;;;6280961;28;20059;-90
2024/03/05 10:26:30;;;;;;;13.65;6.72;;;10.40;99.90;;;;;;6279026;28;20056;-90
2024/03/05 10:29:31;;;;;;;12.20;7.00;;;10.30;99.90;;;;;;6280554;28;20048;-89
2024/03/05 10:32:33;;;;;;;14.00;7.80;;;10.40;99.90;;;;;;6300185;28;20057;-89
2024/03/05 10:35:36;;;;;;;13.02;7.80;;;10.30;99.90;;;;;;6282103;28;20048;-89
2024/03/05 10:38:38;;;;;;;16.67;9.25;;;10.30;99.90;;;;;;6281669;28;20060;-90
2024/03/05 10:41:40;;;;;;;17.30;9.32;;;10.30;99.90;;;;;;6299132;28;20515;-89
2024/03/05 10:44:52;;;;;;;19.25;10.00;;;10.30;99.90;;;;;;6254875;28;20412;-90
2024/03/05 10:47:53;;;;;;;21.40;11.57;;;10.30;99.90;;;;;;6305575;28;20056;-91
2024/03/05 10:50:56;;;;;;;24.95;12.02;;;10.30;99.90;;;;;;6298510;28;20048;-93
2024/03/05 10:53:59;;;;;;;21.73;11.40;;;10.40;99.90;;;;;;6302403;28;20053;-93
2024/03/05 10:57:00;;;;;;;26.65;12.32;;;10.60;99.90;;;;;;6303733;28;20052;-92
2024/03/05 11:00:02;;;;;;;20.85;11.70;;;10.70;99.90;;;;;;6279829;28;20400;-90
2024/03/05 11:03:10;;;;;;;29.13;14.95;;;10.70;99.90;;;;;;6272621;28;20064;-93
2024/03/05 11:06:12;;;;;;;22.92;11.18;;;11.00;99.90;;;;;;6308043;28;20065;-91
2024/03/05 11:09:18;;;;;;;21.67;9.25;;;11.30;99.90;;;;;;6281170;28;20060;-90
2024/03/05 11:12:20;;;;;;;21.17;9.48;;;11.50;99.90;;;;;;6274462;28;20060;-91
2024/03/05 11:15:22;;;;;;;20.65;8.82;;;11.40;99.90;;;;;;6288565;28;20064;-90
2024/03/05 11:18:23;;;;;;;25.40;10.88;;;11.10;99.90;;;;;;6298757;28;20052;-91
2024/03/05 11:21:25;;;;;;;22.52;11.48;;;10.70;99.90;;;;;;6301495;28;20056;-92
2024/03/05 11:24:27;;;;;;;26.60;12.02;;;10.40;99.90;;;;;;6300647;28;20452;-91
2024/03/05 11:27:29;;;;;;;22.20;12.38;;;10.10;99.90;;;;;;6283552;28;20065;-91
2024/03/05 11:30:30;;;;;;;25.33;11.55;;;9.80;99.90;;;;;;6292669;28;20052;-92
2024/03/05 11:33:32;;;;;;;25.38;12.07;;;9.80;99.90;;;;;;6285608;28;20053;-91
2024/03/05 11:36:34;;;;;;;24.00;10.63;;;9.80;99.90;;;;;;6284179;28;20059;-92
2024/03/05 11:39:39;;;;;;;21.35;10.43;;;10.00;99.90;;;;;;6302812;28;20056;-92
2024/03/05 11:42:41;;;;;;;18.75;10.15;;;10.00;99.90;;;;;;6305652;28;20131;-93
2024/03/05 11:45:43;;;;;;;16.83;9.23;;;10.20;99.90;;;;;;6280615;28;20064;-93
2024/03/05 11:48:45;;;;;;;21.55;9.90;;;10.30;99.90;;;;;;6307991;28;20082;-95
2024/03/05 11:51:57;;;;;;;19.60;9.13;;;10.40;99.90;;;;;;6289764;28;20052;-95
2024/03/05 11:54:58;;;;;;;19.10;9.15;;;10.40;99.90;;;;;;6307746;28;20052;-93
2024/03/05 11:58:00;;;;;;;17.92;9.15;;;10.50;99.90;;;;;;6301194;28;20048;-94
2024/03/05 12:01:02;;;;;;;14.57;8.00;;;10.50;99.90;;;;;;6295727;28;20059;-93
2024/03/05 12:04:06;;;;;;;15.40;8.73;;;10.30;99.90;;;;;;6287594;28;20053;-94
2024/03/05 12:07:08;;;;;;;17.08;8.32;;;10.40;99.90;;;;;;6319016;28;20060;-93
2024/03/05 12:10:09;;;;;;;15.35;7.80;;;10.50;99.90;;;;;;6305640;28;20056;-92
2024/03/05 12:13:11;;;;;;;13.48;7.35;;;10.60;99.90;;;;;;6312266;28;20528;-93
2024/03/05 12:16:14;;;;;;;16.35;7.18;;;10.60;99.90;;;;;;6316155;28;20052;-93
2024/03/05 12:19:15;;;;;;;16.42;6.57;;;10.90;99.90;;;;;;6300512;28;20049;-92
2024/03/05 12:22:17;;;;;;;17.27;6.57;;;11.00;99.90;;;;;;6302047;28;20052;-92
2024/03/05 12:25:19;;;;;;;10.02;4.85;;;11.50;99.90;;;;;;6280035;28;20056;-91
2024/03/05 12:28:21;;;;;;;10.75;5.63;;;11.90;99.90;;;;;;6287468;28;20052;-88
2024/03/05 12:31:23;;;;;;;11.00;4.85;;;11.90;96.00;;;;;;6295902;28;20064;-88
2024/03/05 12:34:25;;;;;;;10.52;5.28;;;11.60;98.00;;;;;;6277214;28;20072;-88
2024/03/05 12:37:29;;;;;;;9.55;3.95;;;11.40;98.20;;;;;;6278017;28;20048;-88
2024/03/05 12:40:31;;;;;;;7.18;3.60;;;11.40;99.10;;;;;;6277566;28;20044;-88
2024/03/05 12:43:33;;;;;;;10.02;2.90;;;11.70;96.70;;;;;;6259262;28;20060;-88
2024/03/05 12:46:35;;;;;;;10.52;3.20;;;12.00;79.60;;;;;;6275072;28;20068;-89
2024/03/05 12:49:36;;;;;;;8.05;2.60;;;12.90;80.70;;;;;;6278793;28;20056;-89
2024/03/05 12:52:38;;;;;;;5.20;2.20;;;14.00;58.00;;;;;;6295878;28;20053;-89
2024/03/05 12:55:40;;;;;;;4.07;1.75;;;14.20;21.80;;;;;;6277670;28;20071;-89
2024/03/05 12:58:42;;;;;;;6.63;2.25;;;13.90;29.40;;;;;;6267261;28;20091;-89
2024/03/05 13:01:44;;;;;;;9.27;2.70;;;13.60;41.00;;;;;;6277497;28;20471;-89
2024/03/05 13:04:46;;;;;;;7.03;2.47;;;12.90;25.90;;;;;;6295349;28;20052;-89
2024/03/05 13:07:48;;;;;;;6.50;2.40;;;12.70;64.10;;;;;;6294357;28;20511;-88
2024/03/05 13:10:50;;;;;;;7.70;2.17;;;12.50;35.70;;;;;;6294362;28;20059;-90
2024/03/05 13:13:52;;;;;;;8.57;2.10;;;12.70;53.40;;;;;;6283890;28;20480;-89
2024/03/05 13:16:54;;;;;;;5.35;2.05;;;13.20;55.00;;;;;;6281108;28;20585;-89
2024/03/05 13:19:56;;;;;;;6.88;1.95;;;12.90;16.50;;;;;;6299692;28;20060;-90
2024/03/05 13:22:59;;;;;;;6.47;2.03;;;12.20;20.90;;;;;;6281453;28;20415;-89
2024/03/05 13:26:01;;;;;;;5.68;1.77;;;12.50;63.50;;;;;;6299418;28;20052;-89
2024/03/05 13:29:03;;;;;;;5.95;1.80;;;13.50;27.00;;;;;;6263738;28;20053;-89
2024/03/05 13:32:04;;;;;;;5.00;1.75;;;13.30;11.50;;;;;;6281449;28;20507;-89
2024/03/05 13:35:07;;;;;;;5.80;1.95;;;12.80;28.40;;;;;;6281320;28;20070;-89
2024/03/05 13:38:10;;;;;;;4.88;2.20;;;12.40;28.20;;;;;;6281456;28;20072;-88
2024/03/05 13:41:14;;;;;;;5.43;1.92;;;12.00;42.60;;;;;;6281335;28;20068;-88
2024/03/05 13:44:16;;;;;;;6.13;2.10;;;11.70;39.80;;;;;;6288482;28;20397;-89
2024/03/05 13:47:19;;;;;;;4.82;1.70;;;11.40;51.50;;;;;;6296528;28;20060;-89
2024/03/05 13:50:20;;;;;;;3.70;1.63;;;11.30;63.70;;;;;;6281253;28;20053;-88
2024/03/05 13:53:22;;;;;;;5.43;1.70;;;11.30;66.20;;;;;;6300226;28;20063;-88
2024/03/05 13:56:24;;;;;;;4.68;1.60;;;11.80;51.90;;;;;;6281794;28;20056;-89
2024/03/05 13:59:26;;;;;;;6.40;2.45;;;12.40;50.70;;;;;;6295884;28;20055;-87
2024/03/05 14:02:28;;;;;;;7.03;2.05;;;12.50;49.90;;;;;;6318114;28;20052;-90
2024/03/05 14:05:29;;;;;;;6.32;2.22;;;12.40;22.80;;;;;;6296699;28;20078;-87
2024/03/05 14:08:31;;;;;;;4.93;1.95;;;12.10;39.10;;;;;;6293227;28;20060;-84
2024/03/05 14:11:35;;;;;;;5.72;1.60;;;11.70;36.50;;;;;;6283232;28;20048;-87
2024/03/05 14:14:36;;;;;;;4.43;1.50;;;11.50;30.50;;;;;;6282232;28;20055;-86
2024/03/05 14:17:38;;;;;;;6.72;1.65;;;11.40;24.90;;;;;;6288496;28;20058;-86
2024/03/05 14:20:40;;;;;;;6.00;1.70;;;11.30;48.40;;;;;;6297038;28;20055;-87
2024/03/05 14:23:42;;;;;;;5.32;1.50;;;11.30;51.40;;;;;;6281252;28;20044;-87
2024/03/05 14:26:44;;;;;;;6.95;1.80;;;11.20;44.80;;;;;;6287281;28;20491;-87
2024/03/05 14:29:46;;;;;;;6.95;2.00;;;11.10;51.10;;;;;;6283255;28;20063;-87
2024/03/05 14:32:48;;;;;;;5.65;1.73;;;10.90;59.10;;;;;;6318479;28;20047;-87
2024/03/05 14:35:49;;;;;;;4.93;1.60;;;11.00;61.80;;;;;;6299669;28;20587;-86
2024/03/05 14:38:51;;;;;;;5.18;1.95;;;10.90;54.00;;;;;;6280013;28;20056;-87
2024/03/05 14:41:53;;;;;;;6.60;1.63;;;10.90;69.80;;;;;;6278727;28;20059;-87
2024/03/05 14:44:56;;;;;;;5.65;1.40;;;10.80;68.70;;;;;;6264368;28;20059;-87
2024/03/05 14:47:59;;;;;;;4.57;1.45;;;10.90;66.40;;;;;;6288631;28;20071;-87
2024/03/05 14:51:00;;;;;;;5.18;1.33;;;10.90;77.00;;;;;;6279477;28;20055;-86
2024/03/05 14:54:03;;;;;;;8.20;1.50;;;11.00;64.20;;;;;;6282827;28;20052;-87
2024/03/05 14:57:04;;;;;;;5.43;1.50;;;11.00;65.00;;;;;;6290591;28;20103;-87
2024/03/05 15:00:11;;;;;;;5.55;1.40;;;11.00;50.80;;;;;;6285148;28;20044;-87
2024/03/05 15:03:12;;;;;;;4.95;1.60;;;11.00;51.00;;;;;;6295886;28;20796;-87
2024/03/05 15:06:15;;;;;;;4.53;1.50;;;10.90;45.10;;;;;;6312043;28;20060;-86
2024/03/05 15:09:20;;;;;;;3.20;1.35;;;10.90;55.90;;;;;;6277732;28;20128;-88
2024/03/05 15:12:22;;;;;;;5.78;1.38;;;10.80;47.90;;;;;;6299725;28;20170;-89
2024/03/05 15:15:24;;;;;;;6.03;1.55;;;10.80;65.50;;;;;;6282299;28;20052;-87
2024/03/05 15:18:25;;;;;;;7.40;1.55;;;10.80;59.20;;;;;;6293373;28;20052;-88
2024/03/05 15:21:28;;;;;;;6.18;1.60;;;10.80;58.50;;;;;;6288942;28;20063;-88
2024/03/05 15:24:30;;;;;;;5.53;1.40;;;10.80;62.00;;;;;;6302898;28;20048;-87
2024/03/05 15:27:31;;;;;;;6.13;1.70;;;10.70;66.80;;;;;;6317892;28;20138;-86
2024/03/05 15:30:33;;;;;;;5.95;1.60;;;10.60;68.10;;;;;;6295439;28;20048;-89
2024/03/05 15:33:36;;;;;;;9.48;1.50;;;10.60;67.10;;;;;;6284004;28;20518;-89
2024/03/05 15:36:38;;;;;;;3.95;1.30;;;10.50;68.00;;;;;;6303486;28;20039;-87
2024/03/05 15:39:40;;;;;;;4.00;1.40;;;10.50;72.30;;;;;;6308168;28;20052;-89
2024/03/05 15:42:43;;;;;;;6.25;1.70;;;10.40;70.30;;;;;;6290443;28;20052;-89
2024/03/05 15:45:44;;;;;;;4.10;1.52;;;10.30;76.90;;;;;;6284504;28;20074;-88
2024/03/05 15:48:46;;;;;;;4.57;1.40;;;10.20;78.30;;;;;;6296234;28;20059;-87
2024/03/05 15:51:48;;;;;;;7.20;2.08;;;10.10;77.10;;;;;;6300779;28;20040;-87
2024/03/05 15:54:49;;;;;;;4.07;1.60;;;10.10;80.10;;;;;;6286392;28;20045;-87
2024/03/05 16:01:05;;;;;;;5.00;1.48;;;10.00;82.50;;;;;;6295042;28;20063;-88
2024/03/05 16:04:07;;;;;;;6.97;1.90;;;10.10;87.40;;;;;;6289301;28;20130;-87